Time;durP1;ratioP1;P1;durP2;ratioP2;P2;SDS_P1;SDS_P2;PMS_P1;PMS_P2;Temp;Humidity;BMP_temperature;BMP_pressure;BME280_temperature;BME280_humidity;BME280_pressure;Samples;Min_cycle;Max_cycle;Signal;HPM_P1;HPM_P2
2023/01/21 00:02:13;;;;;;;22.33;9.65;;;;;;;5.47;53.30;102146.50;4967573;28;98837;-71
2023/01/21 00:04:39;;;;;;;19.17;9.10;;;;;;;5.41;53.41;102150.81;4968196;28;96732;-67
2023/01/21 00:07:08;;;;;;;26.27;10.00;;;;;;;5.42;53.61;102140.34;4968412;28;97442;-69
2023/01/21 00:09:34;;;;;;;22.75;9.15;;;;;;;5.61;53.29;102144.88;4960241;28;101367;-68
2023/01/21 00:12:01;;;;;;;16.63;8.88;;;;;;;5.74;53.18;102147.56;4965770;28;99215;-68
2023/01/21 00:14:28;;;;;;;20.70;9.23;;;;;;;5.59;53.63;102151.84;4968690;28;96640;-68
2023/01/21 00:16:54;;;;;;;23.85;9.57;;;;;;;5.66;53.46;102147.50;4965797;28;96828;-69
2023/01/21 00:19:21;;;;;;;18.35;8.32;;;;;;;5.87;52.74;102141.53;4970829;28;99210;-69
2023/01/21 00:21:47;;;;;;;20.05;8.07;;;;;;;5.95;52.45;102150.38;4969206;28;99116;-69
2023/01/21 00:24:15;;;;;;;20.20;8.82;;;;;;;5.91;52.57;102141.56;4966992;28;98039;-69
2023/01/21 00:26:42;;;;;;;21.48;9.43;;;;;;;5.89;52.20;102147.72;4957442;28;97196;-70
2023/01/21 00:29:11;;;;;;;23.27;9.20;;;;;;;5.82;52.91;102154.63;4968683;28;98945;-69
2023/01/21 00:31:37;;;;;;;23.77;9.55;;;;;;;5.93;52.66;102155.59;4968763;28;98927;-69
2023/01/21 00:34:04;;;;;;;22.85;9.25;;;;;;;6.02;52.44;102153.91;4969496;28;96939;-70
2023/01/21 00:36:30;;;;;;;24.02;9.55;;;;;;;5.98;52.97;102156.50;4966881;28;96998;-69
2023/01/21 00:38:58;;;;;;;18.33;9.07;;;;;;;5.87;53.29;102165.13;4969817;28;99292;-68
2023/01/21 00:41:26;;;;;;;23.05;8.98;;;;;;;6.14;52.63;102159.22;4957018;28;98026;-68
2023/01/21 00:43:53;;;;;;;18.73;9.55;;;;;;;6.36;51.81;102164.56;4966086;28;96744;-67
2023/01/21 00:46:20;;;;;;;20.88;8.20;;;;;;;6.21;51.89;102161.00;4967452;28;96933;-68
2023/01/21 00:48:46;;;;;;;17.27;8.45;;;;;;;6.16;52.06;102165.34;4960694;28;99214;-68
2023/01/21 00:51:13;;;;;;;17.30;8.43;;;;;;;6.03;52.11;102174.03;4949777;28;98971;-69
2023/01/21 00:53:41;;;;;;;23.75;8.73;;;;;;;5.78;53.24;102179.06;4946804;28;97376;-69
2023/01/21 00:56:10;;;;;;;21.73;9.15;;;;;;;5.67;53.48;102185.97;4946990;28;97170;-70
2023/01/21 00:58:38;;;;;;;19.27;8.15;;;;;;;5.96;52.50;102189.72;4956698;28;99357;-69
2023/01/21 01:01:06;;;;;;;23.70;8.23;;;;;;;5.73;53.35;102191.28;4956309;28;98732;-69
2023/01/21 01:03:33;;;;;;;19.35;8.02;;;;;;;5.71;53.14;102200.88;4947026;28;96720;-69
2023/01/21 01:06:04;;;;;;;15.77;7.57;;;;;;;5.70;53.54;102201.75;4957308;28;96805;-68
2023/01/21 01:08:30;;;;;;;16.77;8.05;;;;;;;5.69;53.68;102200.00;4945672;28;99017;-68
2023/01/21 01:10:57;;;;;;;17.52;7.95;;;;;;;5.69;53.20;102194.75;4953582;28;99304;-69
2023/01/21 01:13:23;;;;;;;17.15;7.68;;;;;;;5.69;53.87;102205.25;4953297;28;97113;-68
2023/01/21 01:15:54;;;;;;;15.80;7.80;;;;;;;5.87;53.29;102212.34;4955739;28;97634;-69
2023/01/21 01:18:21;;;;;;;19.92;8.30;;;;;;;5.83;53.09;102216.72;4960175;28;98152;-68
2023/01/21 01:20:47;;;;;;;16.50;8.02;;;;;;;5.81;53.77;102215.81;4969152;28;99933;-68
2023/01/21 01:23:14;;;;;;;19.83;8.35;;;;;;;5.86;53.69;102218.47;4959024;28;97882;-68
2023/01/21 01:25:40;;;;;;;16.73;8.32;;;;;;;5.93;53.23;102225.56;4962028;28;97177;-66
2023/01/21 01:28:07;;;;;;;19.17;8.75;;;;;;;5.99;52.73;102229.09;4964487;28;99170;-68
2023/01/21 01:30:35;;;;;;;18.65;8.60;;;;;;;6.00;53.01;102222.97;4965881;28;98739;-68
2023/01/21 01:33:02;;;;;;;14.25;7.78;;;;;;;6.14;52.96;102233.56;4965236;28;96763;-69
2023/01/21 01:35:29;;;;;;;15.57;7.38;;;;;;;6.06;52.17;102231.75;4960036;28;97961;-68
2023/01/21 01:37:55;;;;;;;16.00;7.18;;;;;;;6.11;52.15;102233.53;4967339;28;97892;-68
2023/01/21 01:40:22;;;;;;;16.25;6.82;;;;;;;6.06;52.74;102234.38;4972209;28;101518;-67
2023/01/21 01:42:48;;;;;;;28.80;10.90;;;;;;;6.09;52.26;102229.16;4970848;28;96691;-67
2023/01/21 01:45:19;;;;;;;15.18;7.72;;;;;;;6.02;52.37;102230.00;4969151;28;97459;-70
2023/01/21 01:47:56;;;;;;;13.30;7.20;;;;;;;5.95;52.55;102222.09;4963556;28;99457;-67
2023/01/21 01:50:27;;;;;;;15.63;6.47;;;;;;;6.06;51.95;102227.38;4964720;28;99271;-67
2023/01/21 01:52:55;;;;;;;14.55;7.65;;;;;;;6.03;51.92;102226.50;4947029;28;96903;-68
2023/01/21 01:55:22;;;;;;;17.92;8.30;;;;;;;6.03;52.09;102223.88;4952491;28;97216;-67
2023/01/21 01:57:52;;;;;;;17.38;7.88;;;;;;;6.07;52.09;102228.28;4958876;28;97466;-68
2023/01/21 02:00:20;;;;;;;25.55;8.80;;;;;;;5.94;52.30;102228.19;4954113;28;99568;-69
2023/01/21 02:03:43;;;;;;;19.23;9.18;;;;;;;6.04;52.27;102223.03;4948457;28;97985;-68
2023/01/21 02:05:36;;;;;;;;;;;;;;;5.99;51.95;102229.09;4949304;28;96842;-68
2023/01/21 02:08:03;;;;;;;22.50;9.40;;;;;;;5.92;52.08;102231.66;4954324;28;99353;-71
2023/01/21 02:10:30;;;;;;;17.70;8.65;;;;;;;6.08;52.24;102224.78;4949606;28;98953;-68
2023/01/21 02:12:57;;;;;;;19.20;9.35;;;;;;;6.09;52.12;102231.78;4944719;28;98544;-68
2023/01/21 02:15:31;;;;;;;20.92;10.10;;;;;;;6.06;52.48;102234.38;4949513;28;97321;-69
2023/01/21 02:18:06;;;;;;;26.13;10.50;;;;;;;6.16;51.65;102228.34;4952388;28;99731;-68
2023/01/21 02:21:11;;;;;;;24.08;10.65;;;;;;;6.27;51.49;102237.16;4963725;28;97823;-67
2023/01/21 02:23:59;;;;;;;26.05;11.32;;;;;;;6.03;52.43;102248.38;4953725;28;96981;-68
2023/01/21 02:27:09;;;;;;;30.60;12.15;;;;;;;5.90;52.66;102247.41;4953154;28;96958;-68
2023/01/21 02:30:05;;;;;;;26.60;12.35;;;;;;;6.06;52.42;102253.63;4935519;28;99347;-67
2023/01/21 02:33:04;;;;;;;29.70;12.85;;;;;;;6.10;52.10;102244.06;4950761;28;98455;-67
2023/01/21 02:35:42;;;;;;;30.90;13.40;;;;;;;6.16;52.21;102250.22;4954455;28;96907;-69
2023/01/21 02:38:14;;;;;;;34.85;13.77;;;;;;;6.16;51.95;102246.72;4953130;28;96896;-68
2023/01/21 02:40:52;;;;;;;32.78;13.82;;;;;;;6.26;52.07;102256.38;4951252;28;98301;-68
2023/01/21 02:43:30;;;;;;;32.80;13.88;;;;;;;6.12;52.55;102258.03;4946965;28;99066;-67
2023/01/21 02:46:06;;;;;;;28.73;13.55;;;;;;;6.16;52.65;102249.34;4950658;28;97536;-67
2023/01/21 02:48:39;;;;;;;27.27;12.32;;;;;;;6.30;51.94;102248.53;4946787;28;98604;-67
2023/01/21 02:51:05;;;;;;;27.70;13.23;;;;;;;6.43;51.64;102257.38;4955317;28;100773;-68
2023/01/21 02:53:34;;;;;;;29.58;12.85;;;;;;;6.39;51.66;102250.34;4952556;28;99124;-69
2023/01/21 02:56:05;;;;;;;35.88;14.95;;;;;;;6.48;51.64;102252.16;4950943;28;96913;-67
2023/01/21 02:58:35;;;;;;;32.10;13.90;;;;;;;6.37;51.63;102263.44;4947086;28;96817;-67
2023/01/21 03:01:14;;;;;;;27.52;13.95;;;;;;;6.30;51.64;102250.31;4950657;28;98867;-67
2023/01/21 03:04:03;;;;;;;30.33;12.23;;;;;;;6.42;51.23;102241.63;4956972;28;99132;-68
2023/01/21 03:06:41;;;;;;;30.02;13.18;;;;;;;6.47;51.35;102235.50;4952386;28;96749;-68
2023/01/21 03:09:19;;;;;;;29.88;11.85;;;;;;;6.46;51.53;102246.88;4949203;28;96911;-68
2023/01/21 03:12:07;;;;;;;29.52;11.65;;;;;;;6.57;50.86;102247.81;4954315;28;99633;-68
2023/01/21 03:17:36;;;;;;;23.92;10.80;;;;;;;6.59;50.39;102251.31;4950665;28;97703;-69
2023/01/21 03:20:09;;;;;;;23.80;10.43;;;;;;;6.46;50.62;102252.13;4956173;28;97414;-68
2023/01/21 03:22:37;;;;;;;25.13;11.00;;;;;;;6.39;51.16;102264.34;4956700;28;101215;-68
2023/01/21 03:25:07;;;;;;;24.75;12.18;;;;;;;6.44;50.96;102253.84;4938821;28;97320;-69
2023/01/21 03:27:37;;;;;;;27.30;12.13;;;;;;;6.59;50.89;102261.81;4924199;28;97038;-68
2023/01/21 03:30:08;;;;;;;24.20;11.60;;;;;;;6.32;51.23;102267.81;4935242;28;97156;-68
2023/01/21 03:32:36;;;;;;;26.20;12.88;;;;;;;6.57;50.64;102265.31;4923540;28;98874;-67
2023/01/21 03:35:06;;;;;;;24.88;11.73;;;;;;;6.64;50.73;102267.09;4933267;28;102446;-69
2023/01/21 03:37:40;;;;;;;23.15;10.95;;;;;;;6.68;50.48;102264.50;4929256;28;97653;-69
2023/01/21 03:40:21;;;;;;;27.63;11.18;;;;;;;6.66;50.41;102263.63;4942477;28;96927;-68
2023/01/21 03:42:49;;;;;;;22.20;10.57;;;;;;;6.83;50.08;102268.94;4926645;28;99347;-67
2023/01/21 03:45:16;;;;;;;27.98;10.95;;;;;;;6.56;50.25;102271.44;4940237;28;99619;-69
2023/01/21 03:47:51;;;;;;;20.90;9.95;;;;;;;6.55;50.68;102273.19;4928373;28;97542;-67
2023/01/21 03:50:22;;;;;;;17.60;9.88;;;;;;;6.59;50.48;102266.19;4926368;28;97227;-67
2023/01/21 03:52:49;;;;;;;21.95;10.55;;;;;;;6.40;51.01;102259.97;4928915;28;98955;-68
2023/01/21 03:55:18;;;;;;;23.80;10.25;;;;;;;6.61;50.55;102254.84;4937344;28;98880;-69
2023/01/21 03:57:45;;;;;;;18.67;10.07;;;;;;;6.41;51.02;102256.50;4926046;28;97324;-68
2023/01/21 04:00:12;;;;;;;19.95;9.73;;;;;;;6.39;51.09;102260.84;4937630;28;96756;-69
2023/01/21 04:02:39;;;;;;;23.05;10.25;;;;;;;6.37;51.49;102254.69;4936816;28;100770;-67
2023/01/21 04:05:06;;;;;;;20.80;9.88;;;;;;;6.43;51.50;102249.50;4928852;28;99078;-66
2023/01/21 04:07:33;;;;;;;17.73;8.80;;;;;;;6.38;51.12;102253.81;4934169;28;98725;-68
2023/01/21 04:10:00;;;;;;;16.55;8.05;;;;;;;6.40;50.88;102258.22;4935756;28;97088;-67
2023/01/21 04:12:26;;;;;;;17.42;8.70;;;;;;;6.51;51.10;102255.66;4927251;28;101871;-68
2023/01/21 04:14:53;;;;;;;17.38;8.05;;;;;;;6.38;51.05;102249.47;4928913;28;99366;-67
2023/01/21 04:17:19;;;;;;;14.27;7.93;;;;;;;6.40;51.13;102257.34;4923360;28;98973;-68
2023/01/21 04:19:45;;;;;;;20.85;8.30;;;;;;;6.32;51.26;102254.69;4930302;28;97175;-68
2023/01/21 04:22:12;;;;;;;16.65;7.25;;;;;;;6.26;51.73;102257.28;4946660;28;99716;-67
2023/01/21 04:24:39;;;;;;;13.25;7.43;;;;;;;6.23;51.19;102254.63;4934208;28;99600;-68
2023/01/21 04:27:06;;;;;;;18.70;8.00;;;;;;;6.40;51.11;102259.97;4940919;28;96888;-67
2023/01/21 04:29:32;;;;;;;13.63;8.00;;;;;;;6.47;51.14;102266.13;4936899;28;97155;-68
2023/01/21 04:31:59;;;;;;;14.27;7.15;;;;;;;6.48;50.91;102270.53;4927578;28;99126;-68
2023/01/21 04:34:25;;;;;;;14.50;7.25;;;;;;;6.63;50.92;102254.84;4926253;28;98325;-69
2023/01/21 04:36:52;;;;;;;18.33;7.93;;;;;;;6.56;51.06;102269.72;4936070;28;97179;-69
2023/01/21 04:39:18;;;;;;;13.73;6.88;;;;;;;6.35;51.27;102269.59;4931458;28;96807;-69
2023/01/21 04:41:46;;;;;;;13.32;7.13;;;;;;;6.29;51.42;102272.19;4933583;28;99041;-68
2023/01/21 04:44:13;;;;;;;13.32;6.55;;;;;;;6.22;51.60;102275.63;4925956;28;99229;-69
2023/01/21 04:46:42;;;;;;;13.00;6.85;;;;;;;6.29;51.63;102274.81;4942288;28;99881;-68
2023/01/21 04:49:09;;;;;;;17.92;7.80;;;;;;;6.12;52.19;102274.66;4929835;28;98848;-68
2023/01/21 04:51:35;;;;;;;14.77;7.75;;;;;;;6.18;52.05;102277.34;4933922;28;98683;-68
2023/01/21 04:54:01;;;;;;;15.73;6.97;;;;;;;5.98;52.32;102274.56;4927296;28;99107;-67
2023/01/21 04:56:28;;;;;;;15.20;7.82;;;;;;;6.03;52.48;102268.50;4941034;28;96784;-68
2023/01/21 04:58:56;;;;;;;13.60;6.90;;;;;;;6.05;52.59;102277.22;4934602;28;96834;-68
2023/01/21 05:01:22;;;;;;;11.43;7.03;;;;;;;5.92;52.61;102278.88;4929506;28;99139;-69
2023/01/21 05:03:49;;;;;;;15.77;7.50;;;;;;;5.60;53.60;102274.22;4921625;28;99239;-68
2023/01/21 05:06:15;;;;;;;14.00;7.05;;;;;;;5.89;53.63;102279.75;4936580;28;98223;-69
2023/01/21 05:08:41;;;;;;;16.73;7.38;;;;;;;5.89;52.98;102292.88;4915390;28;97301;-67
2023/01/21 05:11:08;;;;;;;13.82;6.95;;;;;;;6.09;52.81;102289.53;4932312;28;99394;-67
2023/01/21 05:13:35;;;;;;;15.48;7.05;;;;;;;5.90;52.86;102292.00;4924812;28;98942;-67
2023/01/21 05:16:07;;;;;;;16.88;7.35;;;;;;;5.77;53.74;102298.00;4939796;28;96882;-67
2023/01/21 05:18:35;;;;;;;15.15;6.88;;;;;;;5.96;53.45;102294.69;4926846;28;98176;-68
2023/01/21 05:21:01;;;;;;;15.52;7.18;;;;;;;6.06;52.87;102290.38;4934536;28;99910;-68
2023/01/21 05:23:28;;;;;;;16.02;7.60;;;;;;;6.05;52.54;102313.97;4919773;28;98815;-69
2023/01/21 05:25:55;;;;;;;13.60;6.70;;;;;;;5.95;52.81;102303.41;4935209;28;97317;-68
2023/01/21 05:28:22;;;;;;;14.02;6.57;;;;;;;6.26;52.46;102311.50;4938081;28;96911;-67
2023/01/21 05:30:48;;;;;;;16.83;7.20;;;;;;;6.15;52.67;102311.44;4929828;28;99254;-67
2023/01/21 05:33:16;;;;;;;15.15;7.10;;;;;;;6.33;52.60;102310.69;4939690;28;99156;-68
2023/01/21 05:35:42;;;;;;;14.57;7.07;;;;;;;6.33;52.21;102302.81;4929839;28;97223;-67
2023/01/21 05:38:09;;;;;;;15.60;7.38;;;;;;;6.36;52.24;102314.22;4937948;28;97290;-68
2023/01/21 05:40:35;;;;;;;12.05;6.63;;;;;;;6.34;52.39;102310.72;4941277;28;97623;-68
2023/01/21 05:43:02;;;;;;;13.60;6.75;;;;;;;6.45;51.81;102310.75;4931586;28;99713;-67
2023/01/21 05:45:28;;;;;;;17.15;8.32;;;;;;;6.27;52.28;102319.41;4935178;28;96759;-67
2023/01/21 05:47:55;;;;;;;22.85;11.40;;;;;;;6.32;52.22;102325.56;4939951;28;98639;-68
2023/01/21 05:50:22;;;;;;;13.02;7.35;;;;;;;6.46;51.66;102325.66;4945427;28;99840;-67
2023/01/21 05:52:49;;;;;;;20.42;7.55;;;;;;;6.56;51.33;102322.25;4931169;28;99369;-68
2023/01/21 05:55:15;;;;;;;13.23;7.30;;;;;;;6.60;51.52;102317.88;4941095;28;97106;-67
2023/01/21 05:57:42;;;;;;;14.43;7.35;;;;;;;6.16;52.23;102328.97;4935760;28;97630;-69
2023/01/21 06:00:09;;;;;;;14.25;7.60;;;;;;;6.36;52.29;102329.09;4932344;28;98238;-67
2023/01/21 06:02:36;;;;;;;18.48;8.02;;;;;;;6.30;51.92;102329.06;4922763;28;98298;-67
2023/01/21 06:05:02;;;;;;;16.10;7.70;;;;;;;6.30;52.27;102329.91;4931286;28;97351;-67
2023/01/21 06:07:30;;;;;;;13.18;7.03;;;;;;;6.33;52.24;102329.06;4943340;28;97128;-68
2023/01/21 06:09:56;;;;;;;17.05;7.60;;;;;;;6.34;52.45;102330.84;4942836;28;99752;-68
2023/01/21 06:12:23;;;;;;;15.90;8.20;;;;;;;6.42;52.00;102336.13;4930155;28;100599;-68
2023/01/21 06:14:49;;;;;;;16.98;8.05;;;;;;;6.63;51.78;102333.66;4939954;28;96842;-69
2023/01/21 06:17:15;;;;;;;15.25;7.68;;;;;;;6.59;51.74;102338.00;4941438;28;97228;-68
2023/01/21 06:19:42;;;;;;;15.88;7.85;;;;;;;6.46;51.95;102330.91;4936103;28;97124;-68
2023/01/21 06:22:14;;;;;;;16.40;7.85;;;;;;;6.42;52.19;102334.41;4928398;28;99132;-67
2023/01/21 06:24:42;;;;;;;18.90;9.13;;;;;;;6.49;52.15;102333.56;4928515;28;98298;-68
2023/01/21 06:27:08;;;;;;;16.88;8.60;;;;;;;6.37;52.72;102342.22;4933168;28;97621;-69
2023/01/21 06:29:34;;;;;;;16.73;9.18;;;;;;;6.23;52.72;102348.25;4931899;28;99260;-68
2023/01/21 06:32:01;;;;;;;18.85;8.65;;;;;;;6.17;53.06;102348.22;4942633;28;98990;-68
2023/01/21 06:34:27;;;;;;;21.25;10.10;;;;;;;6.22;52.88;102349.13;4929085;28;96725;-68
2023/01/21 06:36:53;;;;;;;19.23;9.07;;;;;;;6.37;53.35;102360.59;4933651;28;96779;-69
2023/01/21 06:39:20;;;;;;;21.98;9.57;;;;;;;6.67;52.63;102354.69;4941443;28;99116;-69
2023/01/21 06:41:47;;;;;;;20.05;9.65;;;;;;;6.52;52.80;102365.09;4943129;28;99359;-68
2023/01/21 06:44:14;;;;;;;22.20;10.90;;;;;;;6.58;52.69;102359.88;4940805;28;97509;-68
2023/01/21 06:46:40;;;;;;;20.02;10.52;;;;;;;6.61;52.50;102365.16;4938678;28;97654;-68
2023/01/21 06:49:06;;;;;;;21.17;10.85;;;;;;;6.63;52.45;102371.28;4938087;28;99452;-68
2023/01/21 06:51:33;;;;;;;23.00;10.43;;;;;;;6.74;52.47;102371.38;4943646;28;99020;-68
2023/01/21 06:53:59;;;;;;;23.08;11.05;;;;;;;6.82;52.11;102366.16;4939922;28;96734;-69
2023/01/21 06:56:26;;;;;;;23.13;11.32;;;;;;;6.40;52.88;102375.50;4939384;28;96865;-68
2023/01/21 06:58:53;;;;;;;27.55;12.57;;;;;;;6.61;52.53;102362.53;4931977;28;102718;-68
2023/01/21 07:01:19;;;;;;;23.52;11.88;;;;;;;6.50;53.13;102363.34;4940672;28;100996;-69
2023/01/21 07:03:46;;;;;;;28.08;13.20;;;;;;;6.56;52.62;102366.00;4938479;28;96748;-69
2023/01/21 07:06:12;;;;;;;26.88;13.35;;;;;;;6.38;53.03;102371.97;4924498;28;96793;-68
2023/01/21 07:08:39;;;;;;;25.30;13.38;;;;;;;6.60;52.65;102375.66;4940114;28;99634;-68
2023/01/21 07:11:05;;;;;;;27.90;13.27;;;;;;;6.62;52.71;102377.44;4927303;28;98867;-68
2023/01/21 07:13:34;;;;;;;27.70;13.50;;;;;;;6.61;52.34;102380.03;4943939;28;97516;-67
2023/01/21 07:16:02;;;;;;;32.85;14.20;;;;;;;6.49;52.70;102378.22;4931675;28;98479;-68
2023/01/21 07:18:29;;;;;;;28.58;13.00;;;;;;;6.48;52.76;102372.94;4926484;28;99137;-67
2023/01/21 07:20:56;;;;;;;28.52;13.98;;;;;;;6.47;52.75;102374.69;4929323;28;99411;-68
2023/01/21 07:23:23;;;;;;;30.88;14.82;;;;;;;6.35;52.72;102369.34;4941493;28;97051;-68
2023/01/21 07:25:49;;;;;;;30.67;14.65;;;;;;;6.44;52.75;102372.03;4924395;28;96931;-67
2023/01/21 07:28:16;;;;;;;31.48;13.70;;;;;;;6.38;52.80;102375.50;4938507;28;99407;-68
2023/01/21 07:30:42;;;;;;;28.65;14.48;;;;;;;6.39;52.57;102384.25;4935296;28;98203;-67
2023/01/21 07:33:10;;;;;;;29.40;15.57;;;;;;;6.47;52.37;102372.06;4933266;28;97279;-67
2023/01/21 07:35:37;;;;;;;31.00;14.13;;;;;;;6.53;51.92;102382.59;4941314;28;97048;-67
2023/01/21 07:38:04;;;;;;;27.40;13.65;;;;;;;6.59;51.82;102377.41;4935754;28;99260;-68
2023/01/21 07:40:30;;;;;;;35.78;14.10;;;;;;;6.62;51.91;102387.06;4946410;28;101665;-68
2023/01/21 07:42:57;;;;;;;29.02;14.55;;;;;;;6.62;52.01;102400.19;4933116;28;96888;-68
2023/01/21 07:45:23;;;;;;;32.17;15.32;;;;;;;6.67;51.64;102391.47;4937609;28;99036;-67
2023/01/21 07:47:50;;;;;;;33.15;14.27;;;;;;;6.74;52.10;102403.78;4933169;28;99225;-69
2023/01/21 07:50:18;;;;;;;30.60;14.50;;;;;;;6.68;51.66;102390.59;4946569;28;99204;-68
2023/01/21 07:52:44;;;;;;;34.30;14.82;;;;;;;6.76;51.63;102395.91;4945489;28;97302;-68
2023/01/21 07:55:11;;;;;;;27.08;14.55;;;;;;;6.89;51.39;102402.13;4943932;28;97442;-67
2023/01/21 07:57:38;;;;;;;29.95;14.07;;;;;;;6.69;51.57;102399.38;4941273;28;99502;-68
2023/01/21 08:00:05;;;;;;;26.20;13.40;;;;;;;6.58;52.08;102396.63;4932374;28;98808;-69
2023/01/21 08:02:32;;;;;;;28.02;13.25;;;;;;;6.68;51.24;102406.38;4937178;28;97416;-69
2023/01/21 08:04:58;;;;;;;27.05;13.40;;;;;;;6.56;52.07;102403.66;4920494;28;97457;-68
2023/01/21 08:07:26;;;;;;;25.50;13.07;;;;;;;6.66;51.58;102401.97;4943904;28;99404;-68
2023/01/21 08:09:53;;;;;;;27.27;12.88;;;;;;;6.60;51.87;102394.91;4928914;28;98748;-68
2023/01/21 08:12:19;;;;;;;27.25;13.90;;;;;;;6.74;51.54;102401.16;4935741;28;96915;-68
2023/01/21 08:14:45;;;;;;;27.73;13.95;;;;;;;6.68;51.69;102402.84;4941268;28;97714;-68
2023/01/21 08:17:12;;;;;;;28.33;13.77;;;;;;;6.70;51.61;102407.22;4935376;28;99610;-67
2023/01/21 08:19:38;;;;;;;27.73;13.15;;;;;;;6.74;51.88;102403.78;4927737;28;98836;-67
2023/01/21 08:22:05;;;;;;;24.73;12.63;;;;;;;6.84;51.41;102404.69;4929174;28;98607;-66
2023/01/21 08:24:33;;;;;;;29.80;13.90;;;;;;;7.00;51.05;102397.78;4926255;28;97228;-69
2023/01/21 08:27:00;;;;;;;26.25;12.10;;;;;;;6.86;51.00;102396.81;4936913;28;99000;-67
2023/01/21 08:29:27;;;;;;;24.67;12.00;;;;;;;6.64;51.31;102401.94;4938972;28;98954;-67
2023/01/21 08:31:53;;;;;;;25.83;14.07;;;;;;;6.82;51.52;102402.94;4933317;28;96986;-68
2023/01/21 08:34:20;;;;;;;24.30;12.23;;;;;;;6.95;51.29;102408.28;4943478;28;97213;-67
2023/01/21 08:36:46;;;;;;;26.23;12.38;;;;;;;7.00;51.14;102408.31;4926388;28;98842;-67
2023/01/21 08:39:14;;;;;;;24.17;12.82;;;;;;;7.03;51.27;102403.94;4928845;28;99182;-69
2023/01/21 08:41:43;;;;;;;25.80;13.43;;;;;;;7.14;50.92;102398.75;4916413;28;99551;-68
2023/01/21 08:44:10;;;;;;;24.23;12.50;;;;;;;7.06;51.01;102392.56;4923174;28;97509;-69
2023/01/21 08:46:36;;;;;;;26.23;12.63;;;;;;;7.18;50.58;102390.00;4938061;28;98339;-69
2023/01/21 08:49:03;;;;;;;26.15;13.68;;;;;;;7.20;50.73;102389.13;4934014;28;99197;-68
2023/01/21 08:51:30;;;;;;;25.02;13.10;;;;;;;7.31;50.41;102394.44;4927347;28;97214;-68
2023/01/21 08:53:56;;;;;;;24.88;12.48;;;;;;;7.38;50.36;102390.06;4930347;28;97760;-68
2023/01/21 08:56:23;;;;;;;25.30;13.25;;;;;;;7.44;50.06;102400.59;4917495;28;98935;-68
2023/01/21 08:58:55;;;;;;;26.20;13.25;;;;;;;7.34;50.21;102397.09;4932836;28;99329;-67
2023/01/21 09:01:22;;;;;;;27.10;13.23;;;;;;;7.03;51.06;102395.16;4920751;28;97447;-68
2023/01/21 09:03:48;;;;;;;46.83;19.85;;;;;;;7.09;50.94;102390.81;4929430;28;98716;-68
2023/01/21 09:06:15;;;;;;;25.83;12.45;;;;;;;7.10;50.98;102391.69;4928496;28;100346;-68
2023/01/21 09:08:41;;;;;;;27.48;13.07;;;;;;;7.21;50.77;102390.00;4933403;28;98818;-68
2023/01/21 09:11:15;;;;;;;24.67;12.88;;;;;;;7.28;50.63;102406.69;4931320;28;96987;-69
2023/01/21 09:13:43;;;;;;;23.15;12.07;;;;;;;7.39;50.84;102395.34;4936591;28;97195;-68
2023/01/21 09:16:14;;;;;;;25.95;12.38;;;;;;;7.27;51.22;102408.44;4919873;28;102538;-70
2023/01/21 09:18:42;;;;;;;23.98;12.57;;;;;;;7.45;50.57;102395.34;4929140;28;99247;-69
2023/01/21 09:21:10;;;;;;;24.17;12.82;;;;;;;7.24;50.92;102389.13;4927925;28;96842;-68
2023/01/21 09:23:38;;;;;;;25.70;11.77;;;;;;;7.23;51.12;102401.41;4930367;28;98300;-68
2023/01/21 09:26:06;;;;;;;24.17;12.63;;;;;;;7.42;50.91;102397.97;4931557;28;98892;-68
2023/01/21 09:28:34;;;;;;;24.58;12.25;;;;;;;7.39;50.73;102410.25;4927896;28;97765;-68
2023/01/21 09:31:02;;;;;;;26.38;12.68;;;;;;;7.34;50.57;102404.97;4926021;28;99609;-69
2023/01/21 09:33:32;;;;;;;27.70;13.18;;;;;;;7.47;50.29;102395.38;4909939;28;98828;-69
2023/01/21 09:35:59;;;;;;;26.02;13.27;;;;;;;7.52;50.01;102402.41;4918242;28;99020;-69
2023/01/21 09:38:27;;;;;;;24.52;12.48;;;;;;;7.63;49.93;102401.53;4918862;28;99184;-68
2023/01/21 09:40:54;;;;;;;26.85;13.50;;;;;;;7.60;49.85;102399.81;4919579;28;97843;-69
2023/01/21 09:43:25;;;;;;;29.65;13.68;;;;;;;7.80;49.45;102402.47;4917787;28;98994;-67
2023/01/21 09:45:56;;;;;;;25.67;13.20;;;;;;;7.97;49.04;102406.00;4916398;28;98934;-68
2023/01/21 09:48:29;;;;;;;28.35;13.63;;;;;;;7.71;49.45;102405.09;4919350;28;98479;-68
2023/01/21 09:51:04;;;;;;;25.27;12.73;;;;;;;7.85;49.37;102411.25;4921425;28;98277;-68
2023/01/21 09:53:42;;;;;;;25.30;12.73;;;;;;;7.84;49.35;102409.50;4917362;28;98780;-69
2023/01/21 09:56:18;;;;;;;30.27;13.80;;;;;;;7.99;49.21;102399.88;4918052;28;99111;-68
2023/01/21 09:58:49;;;;;;;28.88;13.35;;;;;;;8.08;48.71;102409.53;4915354;28;99207;-69
2023/01/21 10:01:21;;;;;;;29.45;14.00;;;;;;;7.94;49.11;102408.66;4919198;28;98786;-68
2023/01/21 10:03:54;;;;;;;28.42;13.68;;;;;;;7.98;48.93;102410.41;4917790;28;97734;-68
2023/01/21 10:06:45;;;;;;;27.40;13.45;;;;;;;8.10;48.35;102402.50;4922460;28;99109;-68
2023/01/21 10:09:45;;;;;;;28.90;13.43;;;;;;;7.89;48.65;102394.59;4919549;28;98810;-70
2023/01/21 10:12:24;;;;;;;27.30;13.20;;;;;;;7.87;48.80;102393.72;4925569;28;97386;-69
2023/01/21 10:15:13;;;;;;;31.98;13.77;;;;;;;7.62;49.06;102392.78;4922948;28;97042;-70
2023/01/21 10:17:50;;;;;;;30.08;13.50;;;;;;;7.63;49.48;102398.91;4929886;28;98966;-70
2023/01/21 10:20:23;;;;;;;26.05;12.43;;;;;;;7.52;49.69;102383.09;4920988;28;98953;-69
2023/01/21 10:22:57;;;;;;;27.85;12.65;;;;;;;7.59;49.51;102372.59;4923657;28;97997;-70
2023/01/21 10:25:31;;;;;;;24.73;11.52;;;;;;;7.40;50.19;102385.69;4924704;28;96956;-69
2023/01/21 10:28:02;;;;;;;27.75;11.98;;;;;;;7.65;49.65;102371.75;4931689;28;99035;-70
2023/01/21 10:30:36;;;;;;;31.25;12.55;;;;;;;7.67;49.57;102375.25;4930035;28;99419;-68
2023/01/21 10:33:04;;;;;;;26.65;12.40;;;;;;;7.58;49.79;102380.50;4946415;28;97054;-68
2023/01/21 10:35:44;;;;;;;26.42;12.82;;;;;;;7.38;50.18;102377.81;4929344;28;97398;-70
2023/01/21 10:38:23;;;;;;;26.10;12.95;;;;;;;7.42;50.47;102371.66;4922491;28;98886;-69
2023/01/21 10:40:58;;;;;;;25.70;12.60;;;;;;;7.64;50.04;102367.34;4919564;28;99047;-70
2023/01/21 10:43:36;;;;;;;23.98;12.18;;;;;;;7.81;49.99;102370.88;4938030;28;96606;-69
2023/01/21 10:46:10;;;;;;;24.42;11.75;;;;;;;7.83;49.88;102360.38;4929107;28;97338;-69
2023/01/21 10:48:46;;;;;;;27.15;12.35;;;;;;;7.64;50.40;102359.47;4924184;28;99810;-70
2023/01/21 10:51:18;;;;;;;21.03;12.37;;;;;;;7.87;50.21;102364.78;4936263;28;98862;-69
2023/01/21 10:53:52;;;;;;;23.05;12.77;;;;;;;7.91;50.28;102362.13;4928337;28;97876;-70
2023/01/21 10:56:28;;;;;;;25.58;11.80;;;;;;;8.09;50.05;102363.91;4933115;28;97227;-69
2023/01/21 10:58:58;;;;;;;28.88;11.43;;;;;;;8.17;49.60;102359.50;4927287;28;98589;-70
2023/01/21 11:01:29;;;;;;;26.75;11.95;;;;;;;8.20;49.75;102366.56;4944698;28;99231;-69
2023/01/21 11:03:58;;;;;;;23.23;11.38;;;;;;;8.38;49.45;102356.91;4924467;28;97142;-70
2023/01/21 11:06:25;;;;;;;20.90;10.85;;;;;;;8.44;49.36;102357.78;4927204;28;97915;-69
2023/01/21 11:08:58;;;;;;;21.98;11.27;;;;;;;8.28;49.59;102349.84;4913581;28;98217;-69
2023/01/21 11:11:27;;;;;;;20.40;11.10;;;;;;;8.31;49.51;102352.53;4930132;28;102155;-68
2023/01/21 11:13:54;;;;;;;22.02;11.77;;;;;;;8.23;50.13;102351.59;4922226;28;96928;-68
2023/01/21 11:16:42;;;;;;;18.98;9.32;;;;;;;7.92;50.87;102334.06;4936288;28;97647;-68
2023/01/21 11:19:12;;;;;;;20.17;10.57;;;;;;;8.00;50.94;102335.84;4931867;28;100857;-68
2023/01/21 11:21:39;;;;;;;20.33;10.77;;;;;;;8.17;50.43;102329.66;4919067;28;99045;-68
2023/01/21 11:24:22;;;;;;;21.88;11.38;;;;;;;8.26;50.41;102317.38;4924237;28;97350;-67
2023/01/21 11:26:54;;;;;;;23.95;12.82;;;;;;;8.35;50.09;102312.13;4921240;28;97853;-70
2023/01/21 11:29:23;;;;;;;20.30;10.07;;;;;;;8.15;50.54;102315.63;4915311;28;99638;-69
2023/01/21 11:31:52;;;;;;;21.58;10.88;;;;;;;8.26;50.35;102321.78;4917979;28;98992;-69
2023/01/21 11:34:21;;;;;;;18.83;10.40;;;;;;;8.21;50.43;102310.34;4934184;28;97079;-69